Time;durP1;ratioP1;P1;durP2;ratioP2;P2;SDS_P1;SDS_P2;PMS_P1;PMS_P2;Temp;Humidity;BMP_temperature;BMP_pressure;BME280_temperature;BME280_humidity;BME280_pressure;Samples;Min_cycle;Max_cycle;Signal;HPM_P1;HPM_P2
2021/08/27 00:01:26;;;;;;;1.50;1.10;;;24.50;56.10;;;;;;6147432;23;20422;-84
2021/08/27 00:03:55;;;;;;;1.53;1.03;;;24.50;56.10;;;;;;6123652;23;20429;-84
2021/08/27 00:06:55;;;;;;;1.23;0.90;;;24.50;56.10;;;;;;6121741;23;20382;-86
2021/08/27 00:09:29;;;;;;;1.50;1.00;;;24.50;56.10;;;;;;6122448;23;20385;-86
2021/08/27 00:15:51;;;;;;;1.50;1.03;;;24.50;56.10;;;;;;6147543;23;20380;-86
2021/08/27 00:27:40;;;;;;;1.20;1.10;;;24.50;56.10;;;;;;6147447;23;20373;-85
2021/08/27 00:30:47;;;;;;;1.10;0.90;;;24.50;56.20;;;;;;6197031;23;20396;-85
2021/08/27 00:33:31;;;;;;;1.40;0.80;;;24.50;56.20;;;;;;6237042;23;20420;-85
2021/08/27 00:36:18;;;;;;;;;;;;;;;;;;;;;
2021/08/27 00:38:50;;;;;;;0.93;0.80;;;24.50;56.20;;;;;;6235148;23;20378;-85
2021/08/27 00:48:20;;;;;;;1.23;0.93;;;24.40;56.10;;;;;;6226858;23;20399;-84
2021/08/27 00:50:58;;;;;;;1.20;0.93;;;24.40;56.20;;;;;;6237386;23;20434;-85
2021/08/27 00:53:32;;;;;;;1.27;0.87;;;24.40;56.20;;;;;;6240412;23;20374;-84
2021/08/27 00:56:16;;;;;;;1.00;0.80;;;24.40;56.20;;;;;;6266375;23;20372;-85
2021/08/27 00:58:50;;;;;;;1.00;0.77;;;24.50;56.20;;;;;;6183027;23;20395;-84
2021/08/27 01:01:36;;;;;;;1.00;0.90;;;24.40;56.10;;;;;;6183090;23;20383;-84
2021/08/27 01:04:03;;;;;;;1.20;1.00;;;24.40;56.10;;;;;;6208485;23;20351;-85
2021/08/27 01:06:53;;;;;;;1.10;0.80;;;24.40;56.10;;;;;;6183536;23;20414;-84
2021/08/27 01:09:54;;;;;;;1.17;0.90;;;24.50;56.10;;;;;;6208026;23;20367;-84
2021/08/27 01:12:55;;;;;;;1.27;0.93;;;24.40;56.10;;;;;;6207845;23;20395;-84
2021/08/27 01:16:06;;;;;;;1.47;0.80;;;24.40;56.10;;;;;;6066313;23;20736;-85
2021/08/27 01:19:07;;;;;;;1.20;0.97;;;24.40;56.10;;;;;;6008048;23;20435;-86
2021/08/27 01:22:04;;;;;;;1.50;1.00;;;24.40;56.20;;;;;;6004131;24;20380;-86
2021/08/27 01:24:37;;;;;;;1.17;0.87;;;24.40;56.10;;;;;;5982154;24;20445;-86
2021/08/27 01:27:09;;;;;;;1.23;0.90;;;24.40;56.20;;;;;;6004975;24;20396;-86
2021/08/27 01:30:06;;;;;;;1.10;0.90;;;24.40;56.20;;;;;;6018563;23;20392;-86
2021/08/27 01:33:09;;;;;;;1.10;0.90;;;24.40;56.10;;;;;;6031967;23;20404;-86
2021/08/27 01:35:36;;;;;;;1.20;1.00;;;24.40;56.10;;;;;;6033753;23;20372;-86
2021/08/27 01:41:29;;;;;;;1.77;0.80;;;24.40;56.10;;;;;;6003772;23;20395;-86
2021/08/27 01:44:15;;;;;;;;;;;;;;;;;;;;;
2021/08/27 01:46:56;;;;;;;1.03;0.70;;;24.40;56.20;;;;;;6003050;24;20434;-86
2021/08/27 01:49:25;;;;;;;1.80;1.10;;;24.40;56.10;;;;;;5979552;24;20370;-86
2021/08/27 01:52:15;;;;;;;1.23;1.07;;;24.40;56.20;;;;;;5989757;23;20492;-86
2021/08/27 01:54:45;;;;;;;1.00;0.83;;;24.40;56.10;;;;;;6054074;23;20399;-86
2021/08/27 01:57:16;;;;;;;1.33;1.00;;;24.40;56.20;;;;;;6093083;23;20430;-86
2021/08/27 01:59:47;;;;;;;1.10;1.00;;;24.40;56.10;;;;;;6176247;23;20414;-86
2021/08/27 02:02:16;;;;;;;1.20;0.90;;;24.40;56.10;;;;;;6151323;23;20400;-86
2021/08/27 02:05:02;;;;;;;1.40;0.93;;;24.40;56.20;;;;;;6176324;23;20487;-86
2021/08/27 02:07:34;;;;;;;1.27;0.97;;;24.40;56.10;;;;;;6176688;23;20384;-86
2021/08/27 02:10:09;;;;;;;1.17;0.90;;;24.40;56.10;;;;;;6207570;23;20382;-86
2021/08/27 02:12:39;;;;;;;1.30;0.90;;;24.40;56.10;;;;;;6238553;23;20358;-86
2021/08/27 02:15:13;;;;;;;1.07;0.80;;;24.40;56.10;;;;;;6237662;23;20390;-86
2021/08/27 02:17:45;;;;;;;1.10;0.97;;;24.40;56.00;;;;;;6237684;23;20425;-86
2021/08/27 02:20:14;;;;;;;1.00;0.90;;;24.40;56.00;;;;;;6239664;23;20469;-86
2021/08/27 02:22:50;;;;;;;1.83;0.90;;;24.40;56.00;;;;;;6236321;23;20367;-86
2021/08/27 02:25:37;;;;;;;1.43;0.90;;;24.40;56.00;;;;;;6238706;23;20374;-86
2021/08/27 02:28:09;;;;;;;1.10;0.87;;;24.40;56.00;;;;;;6237848;23;20362;-86
2021/08/27 02:30:47;;;;;;;2.20;0.93;;;24.40;56.60;;;;;;6239327;23;20432;-85
2021/08/27 02:33:19;;;;;;;1.10;0.90;;;24.30;56.00;;;;;;6227725;23;20395;-85
2021/08/27 02:35:58;;;;;;;1.03;0.70;;;24.40;56.00;;;;;;6206533;23;20386;-85
2021/08/27 02:38:42;;;;;;;1.37;0.87;;;24.40;56.00;;;;;;6180777;23;20486;-85
2021/08/27 02:41:10;;;;;;;1.00;0.80;;;24.30;55.90;;;;;;6202420;23;20375;-85
2021/08/27 02:43:50;;;;;;;1.00;0.80;;;24.30;56.00;;;;;;6207877;23;20381;-85
2021/08/27 02:46:19;;;;;;;1.00;0.80;;;24.30;56.00;;;;;;6181534;23;20383;-85
2021/08/27 02:48:48;;;;;;;1.30;0.90;;;24.30;56.00;;;;;;6205852;23;20379;-85
2021/08/27 02:51:46;;;;;;;0.80;0.60;;;24.30;56.10;;;;;;6156632;23;20383;-86
2021/08/27 02:54:29;;;;;;;1.13;0.70;;;24.40;56.00;;;;;;6063317;23;20431;-86
2021/08/27 02:57:03;;;;;;;1.23;0.87;;;24.30;56.00;;;;;;6180710;23;20426;-86
2021/08/27 02:59:42;;;;;;;1.00;0.80;;;24.30;56.00;;;;;;6182742;23;20360;-86
2021/08/27 03:08:37;;;;;;;0.97;0.70;;;24.30;56.00;;;;;;6207054;23;20378;-86
2021/08/27 03:11:25;;;;;;;1.40;1.03;;;24.30;56.10;;;;;;6158222;23;20375;-86
2021/08/27 03:14:30;;;;;;;1.47;1.00;;;24.30;56.10;;;;;;6181824;23;20383;-86
2021/08/27 03:17:09;;;;;;;1.03;0.83;;;24.30;56.10;;;;;;6208134;23;20419;-86
2021/08/27 03:20:19;;;;;;;;;;;;;;;;;;;;;
2021/08/27 03:23:05;;;;;;;1.03;0.80;;;24.30;56.10;;;;;;6210070;23;20359;-86
2021/08/27 03:25:42;;;;;;;1.00;0.90;;;24.30;56.10;;;;;;6206683;23;20371;-86
2021/08/27 03:28:39;;;;;;;1.10;0.97;;;24.20;56.10;;;;;;6154394;23;20426;-86
2021/08/27 03:31:27;;;;;;;1.20;0.90;;;24.30;56.10;;;;;;6182831;23;20430;-85
2021/08/27 03:34:01;;;;;;;1.20;0.90;;;24.30;56.20;;;;;;6220022;23;20438;-85
2021/08/27 03:36:39;;;;;;;1.10;0.90;;;24.20;56.10;;;;;;6211044;23;20398;-85
2021/08/27 03:39:06;;;;;;;1.00;0.73;;;24.20;56.10;;;;;;6236329;23;20385;-85
2021/08/27 03:42:00;;;;;;;1.20;0.80;;;24.20;56.10;;;;;;6235346;23;20425;-85
2021/08/27 03:44:34;;;;;;;0.90;0.77;;;24.20;56.10;;;;;;6237977;23;20355;-85
2021/08/27 03:47:12;;;;;;;;;;;;;;;;;;;;;
2021/08/27 03:49:47;;;;;;;1.60;0.80;;;24.20;56.10;;;;;;6230151;23;20390;-85
2021/08/27 03:52:16;;;;;;;1.33;0.80;;;24.20;56.10;;;;;;6234118;23;20382;-85
2021/08/27 03:54:47;;;;;;;0.90;0.73;;;24.20;56.20;;;;;;6235419;23;20432;-85
2021/08/27 03:57:24;;;;;;;1.87;1.00;;;24.20;56.10;;;;;;6236665;23;20413;-85
2021/08/27 03:59:53;;;;;;;0.93;0.70;;;24.20;56.20;;;;;;6236610;23;20381;-85
2021/08/27 04:06:05;;;;;;;1.30;1.00;;;24.20;56.10;;;;;;6237630;23;20835;-85
2021/08/27 04:09:08;;;;;;;1.30;0.80;;;24.20;56.20;;;;;;6215567;23;20374;-85
2021/08/27 04:22:10;;;;;;;1.10;0.80;;;24.10;56.20;;;;;;6175071;23;20348;-85
2021/08/27 04:24:36;;;;;;;1.00;0.80;;;24.10;56.30;;;;;;6085999;23;20407;-85
2021/08/27 04:27:11;;;;;;;1.47;1.10;;;24.10;56.30;;;;;;6062421;23;20395;-85
2021/08/27 04:29:42;;;;;;;0.90;0.80;;;24.10;56.30;;;;;;6086981;23;20386;-85
2021/08/27 04:32:34;;;;;;;1.87;0.80;;;24.20;56.30;;;;;;6087002;23;20395;-85
2021/08/27 04:35:04;;;;;;;1.87;1.03;;;24.20;56.20;;;;;;6086151;23;20394;-85
2021/08/27 04:37:31;;;;;;;1.17;1.00;;;24.20;56.20;;;;;;6087179;23;20430;-85
2021/08/27 04:40:03;;;;;;;1.10;0.93;;;24.20;56.20;;;;;;6087119;23;20378;-85
2021/08/27 04:43:08;;;;;;;1.13;0.83;;;24.20;56.20;;;;;;6063084;23;20415;-85
2021/08/27 04:45:37;;;;;;;1.23;0.90;;;24.30;56.20;;;;;;6106940;23;20376;-85
2021/08/27 04:48:05;;;;;;;1.00;0.80;;;24.20;56.20;;;;;;6067522;23;20393;-86
2021/08/27 04:50:35;;;;;;;0.90;0.67;;;24.30;56.20;;;;;;6068293;23;20390;-85
2021/08/27 04:59:52;;;;;;;1.13;0.80;;;24.30;56.10;;;;;;6028866;23;20399;-85
2021/08/27 05:02:22;;;;;;;1.03;0.80;;;24.30;56.20;;;;;;6100846;23;20413;-85
2021/08/27 05:05:08;;;;;;;1.20;0.90;;;24.30;56.20;;;;;;6120882;23;20381;-85
2021/08/27 05:07:36;;;;;;;1.60;1.00;;;24.30;56.10;;;;;;6120702;23;20405;-85
2021/08/27 05:10:19;;;;;;;1.00;0.77;;;24.30;56.10;;;;;;6145270;23;20399;-85
2021/08/27 05:13:13;;;;;;;0.90;0.70;;;24.30;56.10;;;;;;6146184;23;20364;-85
2021/08/27 05:19:10;;;;;;;1.20;0.80;;;24.30;56.10;;;;;;6044753;23;20418;-86
2021/08/27 05:22:24;;;;;;;;;;;;;;;;;;;;;
2021/08/27 05:38:36;;;;;;;1.10;0.77;;;24.30;56.20;;;;;;5947689;23;20442;-85
2021/08/27 05:41:14;;;;;;;1.30;0.83;;;24.30;56.20;;;;;;5947561;24;20379;-85
2021/08/27 06:00:29;;;;;;;1.03;0.70;;;24.30;56.10;;;;;;5891593;24;20400;-86
2021/08/27 06:12:47;;;;;;;1.30;1.10;;;24.30;56.10;;;;;;5973955;24;20382;-84
2021/08/27 06:15:29;;;;;;;1.73;1.10;;;24.30;56.10;;;;;;5975649;24;20489;-83
2021/08/27 06:21:15;;;;;;;;;;;;;;;;;;;;;
2021/08/27 06:24:19;;;;;;;1.80;1.40;;;24.30;55.80;;;;;;5988663;24;20386;-85
2021/08/27 06:30:02;;;;;;;1.80;1.43;;;24.30;55.70;;;;;;6000487;24;20412;-85
2021/08/27 06:32:31;;;;;;;2.20;1.50;;;24.20;55.60;;;;;;6002002;23;20742;-87
2021/08/27 06:35:06;;;;;;;1.50;1.20;;;24.20;55.60;;;;;;6005729;23;20398;-87
2021/08/27 06:40:25;;;;;;;2.20;1.30;;;24.30;55.70;;;;;;6057926;23;20367;-87
2021/08/27 06:43:49;;;;;;;1.83;1.17;;;24.20;55.60;;;;;;6020323;23;20408;-87
2021/08/27 06:46:45;;;;;;;;;;;;;;;;;;;;;
2021/08/27 06:56:57;;;;;;;;;;;;;;;;;;;;;
2021/08/27 07:02:58;;;;;;;2.03;1.50;;;24.30;55.80;;;;;;6035793;23;20368;-82
2021/08/27 07:09:42;;;;;;;1.43;1.07;;;24.30;55.70;;;;;;6025949;23;20733;-85
2021/08/27 07:12:11;;;;;;;1.80;1.10;;;24.40;55.80;;;;;;6060862;23;20462;-85
2021/08/27 07:14:42;;;;;;;2.10;1.20;;;24.40;55.70;;;;;;6085222;23;20439;-85
2021/08/27 07:17:11;;;;;;;2.03;1.20;;;24.40;55.60;;;;;;6085255;23;20418;-85
2021/08/27 07:19:38;;;;;;;1.57;1.10;;;24.50;55.70;;;;;;6085441;23;20407;-85
2021/08/27 07:22:07;;;;;;;1.10;0.90;;;24.50;55.60;;;;;;6085100;23;20418;-85
2021/08/27 07:24:38;;;;;;;2.70;0.97;;;24.50;55.50;;;;;;6087097;23;20422;-84
2021/08/27 07:27:05;;;;;;;2.20;1.07;;;24.50;55.50;;;;;;6061494;23;20397;-85
2021/08/27 07:29:36;;;;;;;1.50;0.97;;;24.60;55.50;;;;;;6010460;23;20392;-85
2021/08/27 07:32:11;;;;;;;1.47;1.10;;;24.60;55.50;;;;;;6034358;23;20392;-85
2021/08/27 07:34:44;;;;;;;1.20;1.00;;;24.60;55.50;;;;;;6120042;23;20430;-85
2021/08/27 07:37:11;;;;;;;1.10;0.90;;;24.60;55.50;;;;;;6144510;23;20424;-85
2021/08/27 07:39:40;;;;;;;1.60;1.20;;;24.60;55.50;;;;;;6119952;23;20381;-85
2021/08/27 07:42:08;;;;;;;1.90;0.90;;;24.60;55.50;;;;;;6143831;23;20448;-85
2021/08/27 07:44:34;;;;;;;2.03;1.50;;;24.60;55.40;;;;;;6153037;23;20374;-85
2021/08/27 07:47:01;;;;;;;1.73;1.10;;;24.60;55.40;;;;;;6235062;23;20472;-85
2021/08/27 07:49:40;;;;;;;1.43;0.93;;;24.70;55.50;;;;;;6235161;23;20378;-85
2021/08/27 07:52:24;;;;;;;1.20;1.00;;;24.70;55.40;;;;;;6236390;23;20365;-85
2021/08/27 07:54:50;;;;;;;1.53;0.90;;;24.70;55.40;;;;;;6218622;23;20379;-85
2021/08/27 07:57:16;;;;;;;1.60;1.10;;;24.70;55.50;;;;;;6235192;23;20426;-84
2021/08/27 07:59:54;;;;;;;1.47;1.00;;;24.70;55.40;;;;;;6236133;23;20896;-85
2021/08/27 08:09:18;;;;;;;1.50;0.90;;;24.80;55.50;;;;;;6115610;23;20386;-85
2021/08/27 08:11:55;;;;;;;1.43;1.20;;;24.70;55.50;;;;;;6115069;23;20366;-85
2021/08/27 08:14:22;;;;;;;1.37;1.00;;;24.70;55.50;;;;;;6116196;23;20372;-85
2021/08/27 08:16:50;;;;;;;2.30;1.00;;;24.70;55.50;;;;;;6115549;23;20448;-85
2021/08/27 08:19:19;;;;;;;1.97;1.10;;;24.80;55.50;;;;;;6092430;23;20377;-85
2021/08/27 08:21:46;;;;;;;1.33;1.10;;;24.80;55.50;;;;;;6115095;23;20392;-85
2021/08/27 08:24:17;;;;;;;1.37;1.10;;;24.80;55.50;;;;;;6091941;23;20382;-85
2021/08/27 08:26:43;;;;;;;1.20;0.90;;;24.80;55.50;;;;;;6115472;23;20361;-85
2021/08/27 08:29:17;;;;;;;1.10;1.00;;;24.80;55.50;;;;;;6115158;23;20393;-85
2021/08/27 08:31:46;;;;;;;1.50;1.07;;;24.80;55.40;;;;;;6068339;23;20389;-85
2021/08/27 08:34:13;;;;;;;1.53;1.07;;;24.80;55.50;;;;;;6114625;23;20461;-85
2021/08/27 08:36:39;;;;;;;1.47;0.93;;;24.80;55.40;;;;;;6114278;23;20585;-85
2021/08/27 08:39:07;;;;;;;1.40;0.90;;;24.80;55.40;;;;;;6090983;23;20393;-85
2021/08/27 08:41:33;;;;;;;3.00;1.00;;;24.90;56.10;;;;;;6227811;23;20406;-85
2021/08/27 08:44:04;;;;;;;1.87;1.10;;;24.80;55.40;;;;;;6235701;23;20366;-85
2021/08/27 08:46:32;;;;;;;1.40;1.00;;;24.90;55.40;;;;;;6235657;23;20378;-85
2021/08/27 08:49:02;;;;;;;1.30;1.20;;;24.90;55.40;;;;;;6234704;23;20381;-84
2021/08/27 08:51:30;;;;;;;1.37;1.00;;;24.90;55.40;;;;;;6235305;23;20381;-84
2021/08/27 08:53:57;;;;;;;2.10;0.83;;;24.90;55.40;;;;;;6236259;23;20405;-85
2021/08/27 08:56:23;;;;;;;4.30;1.10;;;24.90;55.40;;;;;;6253906;23;20382;-85
2021/08/27 08:58:52;;;;;;;1.10;0.90;;;24.90;55.40;;;;;;6254648;23;20386;-84
2021/08/27 09:01:58;;;;;;;2.50;1.00;;;24.90;55.30;;;;;;6228338;23;20582;-84
2021/08/27 09:04:27;;;;;;;1.20;0.97;;;25.00;55.40;;;;;;6231133;23;20361;-86
2021/08/27 09:06:58;;;;;;;1.40;1.07;;;24.90;55.30;;;;;;6231054;23;20394;-84
2021/08/27 09:09:35;;;;;;;1.60;1.10;;;24.90;55.30;;;;;;6230690;23;20370;-84
2021/08/27 09:12:25;;;;;;;1.70;1.00;;;24.90;55.30;;;;;;6229408;23;20389;-84
2021/08/27 09:15:09;;;;;;;1.10;0.90;;;25.00;55.40;;;;;;6229623;23;20397;-84
2021/08/27 09:17:39;;;;;;;1.97;0.83;;;24.90;55.30;;;;;;6230227;23;20444;-84
2021/08/27 09:20:07;;;;;;;1.30;0.90;;;25.00;55.40;;;;;;6229548;23;20822;-84
2021/08/27 09:23:05;;;;;;;1.33;1.03;;;25.00;55.40;;;;;;6229256;23;20393;-84
2021/08/27 09:25:41;;;;;;;1.33;0.90;;;25.00;55.40;;;;;;6224721;23;20386;-84
2021/08/27 09:31:59;;;;;;;1.53;1.10;;;25.00;55.40;;;;;;6134022;23;20397;-84
2021/08/27 09:51:54;;;;;;;1.47;0.80;;;24.90;55.40;;;;;;6168867;23;20348;-86
2021/08/27 09:54:24;;;;;;;2.60;1.30;;;25.00;55.50;;;;;;6132969;23;20388;-83
2021/08/27 09:57:37;;;;;;;2.80;1.20;;;24.90;55.40;;;;;;6143953;23;20446;-83
2021/08/27 10:06:41;;;;;;;1.43;0.90;;;24.90;55.40;;;;;;6168941;23;20348;-84
2021/08/27 10:09:07;;;;;;;2.40;1.20;;;24.90;55.40;;;;;;6144129;23;20468;-84
2021/08/27 10:11:43;;;;;;;1.37;1.07;;;24.90;55.40;;;;;;6144175;23;20379;-83
2021/08/27 10:14:11;;;;;;;1.30;1.00;;;25.00;55.50;;;;;;6187827;23;20481;-83
2021/08/27 10:16:41;;;;;;;2.30;1.23;;;25.00;55.40;;;;;;6232454;23;20397;-84
2021/08/27 10:33:14;;;;;;;2.10;1.07;;;25.00;55.40;;;;;;6034025;23;20464;-83
2021/08/27 10:57:38;;;;;;;;;;;;;;;;;;;;;
2021/08/27 11:07:37;;;;;;;;;;;;;;;;;;;;;
2021/08/27 11:13:34;;;;;;;1.80;0.90;;;25.10;55.70;;;;;;5977302;23;20389;-84
2021/08/27 11:16:36;;;;;;;1.60;1.00;;;25.10;55.70;;;;;;5975133;24;20443;-86
2021/08/27 11:19:41;;;;;;;2.07;1.20;;;25.10;55.70;;;;;;5968220;24;20479;-84
2021/08/27 11:22:52;;;;;;;1.53;1.00;;;25.10;55.60;;;;;;6004072;23;20388;-84
2021/08/27 11:26:07;;;;;;;2.33;1.20;;;25.10;55.50;;;;;;6002995;23;20392;-85
2021/08/27 11:36:17;;;;;;;1.20;0.80;;;25.10;55.60;;;;;;6149439;23;20393;-84
2021/08/27 12:59:18;;;;;;;32.50;21.30;;;24.80;56.00;;;;;;5943783;24;20475;-86
2021/08/27 13:01:44;;;;;;;29.50;20.50;;;24.80;56.00;;;;;;5942160;24;20405;-85
2021/08/27 13:04:10;;;;;;;31.67;21.63;;;24.70;56.00;;;;;;6066674;23;20388;-84
2021/08/27 13:06:54;;;;;;;29.30;20.27;;;24.80;56.00;;;;;;6116285;23;20392;-85
2021/08/27 13:09:35;;;;;;;28.77;20.60;;;24.90;56.10;;;;;;6144590;23;20373;-85
2021/08/27 13:12:03;;;;;;;31.40;22.97;;;24.90;56.00;;;;;;6142606;23;20387;-85
2021/08/27 13:14:38;;;;;;;28.70;19.50;;;24.80;55.90;;;;;;6139710;23;20380;-85
2021/08/27 13:17:20;;;;;;;28.37;20.50;;;24.90;56.00;;;;;;6139947;23;20527;-85
2021/08/27 13:19:46;;;;;;;32.00;20.33;;;24.90;55.90;;;;;;6113294;23;20460;-85
2021/08/27 13:22:44;;;;;;;29.53;21.10;;;24.90;55.90;;;;;;6139160;23;20412;-85
2021/08/27 13:25:14;;;;;;;25.77;18.90;;;24.90;55.90;;;;;;6139581;23;20361;-85
2021/08/27 13:27:44;;;;;;;30.50;20.33;;;24.90;55.90;;;;;;6139020;23;20372;-85
2021/08/27 13:30:22;;;;;;;25.63;18.57;;;24.90;55.90;;;;;;6140189;23;20428;-85
2021/08/27 13:33:03;;;;;;;28.53;21.27;;;24.90;55.90;;;;;;6139955;23;20396;-85
2021/08/27 13:36:05;;;;;;;27.03;18.77;;;24.90;55.90;;;;;;6118485;23;20368;-85
2021/08/27 13:38:30;;;;;;;29.00;18.60;;;24.90;55.80;;;;;;6068439;23;20435;-85
2021/08/27 13:41:02;;;;;;;28.13;18.40;;;24.90;55.90;;;;;;6137241;23;20436;-85
2021/08/27 13:48:05;;;;;;;25.73;18.27;;;24.90;55.90;;;;;;6051630;23;20451;-85
2021/08/27 13:50:31;;;;;;;27.67;18.17;;;24.90;55.90;;;;;;6029121;23;20447;-85
2021/08/27 13:52:57;;;;;;;22.90;15.77;;;24.90;56.00;;;;;;6032221;23;20601;-85
2021/08/27 13:55:24;;;;;;;23.93;17.50;;;24.90;56.00;;;;;;6054326;23;20375;-84
2021/08/27 13:57:50;;;;;;;21.30;17.07;;;24.90;56.00;;;;;;6053086;23;20494;-85
2021/08/27 14:00:18;;;;;;;20.87;16.67;;;24.90;55.90;;;;;;6032642;23;20403;-85
2021/08/27 14:02:48;;;;;;;19.57;14.83;;;24.90;55.90;;;;;;6030214;23;20383;-86
2021/08/27 14:05:17;;;;;;;21.10;16.53;;;24.90;55.90;;;;;;6055282;23;20805;-83
2021/08/27 14:07:46;;;;;;;22.27;15.10;;;24.90;55.90;;;;;;6032887;23;20408;-84
2021/08/27 14:10:17;;;;;;;20.13;15.83;;;24.90;55.90;;;;;;6028892;23;20376;-83
2021/08/27 14:19:08;;;;;;;22.00;14.70;;;24.90;55.90;;;;;;6051234;23;20431;-85
2021/08/27 14:21:50;;;;;;;23.33;13.87;;;24.90;56.50;;;;;;6026704;23;20383;-85
2021/08/27 14:24:19;;;;;;;18.40;14.60;;;24.90;55.90;;;;;;6103716;23;20209;-85
2021/08/27 14:26:45;;;;;;;17.90;13.77;;;24.90;56.00;;;;;;6113479;23;20385;-85
2021/08/27 14:32:37;;;;;;;16.27;11.90;;;24.90;55.90;;;;;;6138205;23;20140;-85
2021/08/27 14:35:19;;;;;;;17.87;14.43;;;24.90;56.00;;;;;;6137742;23;20859;-85
2021/08/27 14:37:45;;;;;;;16.10;12.03;;;24.90;56.00;;;;;;6138010;23;20420;-84
2021/08/27 14:40:23;;;;;;;17.60;13.10;;;24.90;56.00;;;;;;6112189;23;20381;-84
2021/08/27 14:42:49;;;;;;;17.67;13.30;;;24.90;56.00;;;;;;6138225;23;20373;-84
2021/08/27 14:45:23;;;;;;;17.17;11.80;;;24.90;56.00;;;;;;6137048;23;20417;-85
2021/08/27 14:47:54;;;;;;;16.70;11.00;;;24.90;56.00;;;;;;6137865;23;20145;-85
2021/08/27 14:50:45;;;;;;;14.80;11.33;;;24.90;56.00;;;;;;6142472;23;20388;-84
2021/08/27 14:53:11;;;;;;;15.53;12.10;;;24.90;56.00;;;;;;6116426;23;20384;-84
2021/08/27 14:55:38;;;;;;;17.87;12.10;;;24.90;56.00;;;;;;6139542;23;20991;-84
2021/08/27 14:58:04;;;;;;;23.00;12.60;;;24.90;56.00;;;;;;6142506;23;20420;-83
2021/08/27 15:00:30;;;;;;;15.20;11.43;;;24.90;56.00;;;;;;6141552;23;20184;-84
2021/08/27 15:02:59;;;;;;;18.03;11.90;;;24.90;56.00;;;;;;6141624;23;20176;-84
2021/08/27 15:05:26;;;;;;;20.37;12.13;;;24.90;56.00;;;;;;6142773;23;20368;-82
2021/08/27 15:07:51;;;;;;;16.70;12.47;;;24.90;56.00;;;;;;6141521;23;20838;-84
2021/08/27 15:10:24;;;;;;;15.13;11.30;;;24.90;56.00;;;;;;6140981;23;20404;-85
2021/08/27 15:12:50;;;;;;;15.57;11.00;;;24.90;56.50;;;;;;6140882;23;20552;-85
2021/08/27 15:15:16;;;;;;;12.93;10.40;;;24.90;56.00;;;;;;6141015;23;20416;-84
2021/08/27 15:17:42;;;;;;;14.43;10.93;;;24.90;56.00;;;;;;6141523;23;20177;-84
2021/08/27 15:20:11;;;;;;;13.80;10.30;;;24.90;56.00;;;;;;6117117;23;20377;-85
2021/08/27 15:22:37;;;;;;;12.97;9.33;;;24.90;56.00;;;;;;6141383;23;20149;-84
2021/08/27 15:25:03;;;;;;;14.47;9.57;;;24.90;56.00;;;;;;6140679;23;20391;-84
2021/08/27 15:27:32;;;;;;;14.27;9.77;;;24.90;56.00;;;;;;6141213;23;20184;-85
2021/08/27 15:29:58;;;;;;;11.77;9.33;;;24.90;56.00;;;;;;6140794;23;20424;-85
2021/08/27 15:32:27;;;;;;;10.60;8.77;;;24.90;56.00;;;;;;6141012;23;20384;-85
2021/08/27 15:34:56;;;;;;;11.80;9.17;;;24.80;55.90;;;;;;6139784;23;20463;-85
2021/08/27 15:37:32;;;;;;;12.50;9.63;;;24.90;56.00;;;;;;6225069;23;20421;-85
2021/08/27 15:40:13;;;;;;;13.10;9.53;;;24.90;56.00;;;;;;6230467;23;20386;-85
2021/08/27 15:42:41;;;;;;;13.33;9.83;;;24.80;55.90;;;;;;6230531;23;20370;-85
2021/08/27 15:45:13;;;;;;;12.87;10.17;;;24.80;56.00;;;;;;6256069;23;20370;-85
2021/08/27 15:47:48;;;;;;;14.93;10.33;;;24.90;56.10;;;;;;6231959;23;20375;-85
2021/08/27 15:50:16;;;;;;;12.47;9.63;;;24.80;56.00;;;;;;6232089;23;20399;-85
2021/08/27 15:52:42;;;;;;;12.40;8.80;;;24.90;56.10;;;;;;6230912;23;20386;-85
2021/08/27 15:55:52;;;;;;;10.57;8.73;;;24.80;56.00;;;;;;6229866;23;20390;-85
2021/08/27 15:58:36;;;;;;;10.97;9.03;;;24.90;56.00;;;;;;6230009;23;20477;-85
2021/08/27 16:01:27;;;;;;;13.23;8.60;;;24.80;56.00;;;;;;6115236;23;20398;-85
2021/08/27 16:03:53;;;;;;;12.30;8.73;;;24.80;56.10;;;;;;6208344;23;20413;-86
2021/08/27 16:09:44;;;;;;;10.10;7.83;;;24.80;56.00;;;;;;6267190;22;20483;-85
2021/08/27 16:12:14;;;;;;;10.40;8.50;;;24.80;56.10;;;;;;6241676;23;20401;-85
2021/08/27 16:14:57;;;;;;;11.07;7.70;;;24.80;56.10;;;;;;6266762;23;20361;-85
2021/08/27 16:20:36;;;;;;;11.67;8.30;;;24.80;56.10;;;;;;6260457;23;20369;-86
2021/08/27 16:23:19;;;;;;;10.60;8.43;;;24.80;56.10;;;;;;6236695;23;20377;-86
2021/08/27 16:25:45;;;;;;;12.47;9.37;;;24.80;56.10;;;;;;6235813;23;20396;-85
2021/08/27 16:28:28;;;;;;;8.37;7.03;;;24.80;56.70;;;;;;6235631;23;20381;-86
2021/08/27 16:30:54;;;;;;;10.30;7.77;;;24.80;56.10;;;;;;6260504;23;20142;-85
2021/08/27 16:33:20;;;;;;;11.60;7.73;;;24.80;56.10;;;;;;6260838;23;20432;-85
2021/08/27 16:35:46;;;;;;;10.23;7.53;;;24.80;56.20;;;;;;6260636;23;20157;-85
2021/08/27 16:38:11;;;;;;;9.83;7.30;;;24.80;56.10;;;;;;6235153;23;20175;-86
2021/08/27 16:40:37;;;;;;;8.37;7.17;;;24.80;56.10;;;;;;6232312;23;20143;-85
2021/08/27 17:14:16;;;;;;;9.80;7.20;;;24.60;56.20;;;;;;5811009;24;20391;-85
2021/08/27 17:16:42;;;;;;;7.80;6.90;;;24.60;56.40;;;;;;5817284;24;20430;-85
2021/08/27 17:19:08;;;;;;;8.33;7.30;;;24.60;56.40;;;;;;5834174;24;20161;-85
2021/08/27 17:21:34;;;;;;;9.60;7.80;;;24.60;56.40;;;;;;5810232;24;20175;-85
2021/08/27 17:24:00;;;;;;;10.00;6.97;;;24.60;56.30;;;;;;5882697;24;20155;-84
2021/08/27 17:26:28;;;;;;;11.93;7.40;;;24.60;56.20;;;;;;5914165;24;20388;-86
2021/08/27 17:28:55;;;;;;;11.57;7.87;;;24.70;56.30;;;;;;5917687;24;20174;-86
2021/08/27 17:31:24;;;;;;;9.40;6.60;;;24.70;56.30;;;;;;5917542;24;20387;-86
2021/08/27 17:33:49;;;;;;;8.50;6.30;;;24.70;56.30;;;;;;5918579;24;20547;-86
2021/08/27 17:36:15;;;;;;;8.20;5.80;;;24.70;56.30;;;;;;5919883;24;20387;-84
2021/08/27 17:38:44;;;;;;;8.80;6.33;;;24.70;56.20;;;;;;5925218;24;20179;-83
2021/08/27 17:41:10;;;;;;;7.90;6.13;;;24.80;56.30;;;;;;6058373;23;20162;-83
2021/08/27 17:43:36;;;;;;;10.67;7.23;;;24.80;56.30;;;;;;6065201;23;20383;-83
2021/08/27 17:46:01;;;;;;;7.87;7.07;;;24.80;56.20;;;;;;6125581;23;20393;-82
2021/08/27 17:48:30;;;;;;;8.97;6.40;;;24.80;56.20;;;;;;6237338;23;20179;-82
2021/08/27 17:50:58;;;;;;;10.23;6.80;;;24.80;56.20;;;;;;6233677;23;20151;-85
2021/08/27 17:53:24;;;;;;;9.80;7.07;;;24.80;56.20;;;;;;6232790;23;20393;-85
2021/08/27 17:55:51;;;;;;;8.17;6.40;;;24.80;56.20;;;;;;6234541;23;20370;-86
2021/08/27 17:58:16;;;;;;;7.57;6.77;;;24.90;56.30;;;;;;6259083;23;20186;-86
2021/08/27 18:00:48;;;;;;;9.00;6.70;;;24.80;56.20;;;;;;6234168;23;20382;-86
2021/08/27 18:03:33;;;;;;;9.03;6.63;;;24.90;56.20;;;;;;6237739;23;20148;-86
2021/08/27 18:06:24;;;;;;;9.03;6.50;;;24.90;56.30;;;;;;6234277;23;20378;-88
2021/08/27 18:08:54;;;;;;;7.73;6.33;;;24.90;56.30;;;;;;6232947;23;20366;-87
2021/08/27 18:11:29;;;;;;;6.90;5.60;;;24.90;56.30;;;;;;6231739;23;20401;-88
2021/08/27 18:13:55;;;;;;;9.63;6.37;;;24.90;56.30;;;;;;6256358;23;20689;-87
2021/08/27 18:16:22;;;;;;;7.93;6.20;;;24.90;56.30;;;;;;6229826;23;20398;-86
2021/08/27 18:18:50;;;;;;;9.20;6.00;;;24.90;56.30;;;;;;6228824;23;20560;-84
2021/08/27 18:21:22;;;;;;;7.83;5.80;;;24.90;56.20;;;;;;6204149;23;20375;-84
2021/08/27 18:23:48;;;;;;;7.53;6.20;;;24.90;56.20;;;;;;6204156;23;20387;-85
2021/08/27 18:26:29;;;;;;;7.80;5.77;;;24.90;56.20;;;;;;6230354;23;20371;-85
2021/08/27 18:28:54;;;;;;;8.10;5.40;;;24.90;56.20;;;;;;6231226;23;20422;-85
2021/08/27 18:31:24;;;;;;;9.20;5.83;;;24.90;56.20;;;;;;6255028;23;20378;-85
2021/08/27 18:33:59;;;;;;;7.17;5.13;;;24.90;56.20;;;;;;6229274;23;20155;-85
2021/08/27 18:36:27;;;;;;;6.83;6.00;;;24.90;56.20;;;;;;6256489;23;20452;-86
2021/08/27 18:39:02;;;;;;;8.00;5.50;;;25.00;56.30;;;;;;6257290;23;20429;-86
2021/08/27 18:41:33;;;;;;;7.70;6.10;;;25.00;56.30;;;;;;6238457;23;20405;-84
2021/08/27 18:44:03;;;;;;;7.70;6.90;;;25.00;56.30;;;;;;6213156;23;20386;-84
2021/08/27 18:46:29;;;;;;;6.97;5.67;;;25.00;56.30;;;;;;6237489;23;20392;-85
2021/08/27 18:48:58;;;;;;;7.23;5.20;;;25.00;56.20;;;;;;6261024;23;20379;-84
2021/08/27 18:51:34;;;;;;;6.40;5.33;;;25.00;56.30;;;;;;6235121;23;20378;-84
2021/08/27 18:54:15;;;;;;;7.47;5.60;;;25.00;56.20;;;;;;6235256;23;20377;-83
2021/08/27 18:56:45;;;;;;;7.20;5.27;;;25.00;56.30;;;;;;6234364;23;20385;-84
2021/08/27 18:59:11;;;;;;;7.83;5.50;;;25.00;56.20;;;;;;6235989;23;20384;-84
2021/08/27 19:01:49;;;;;;;8.57;4.97;;;25.00;56.20;;;;;;6235479;23;20378;-85
2021/08/27 19:04:24;;;;;;;5.70;4.90;;;25.00;56.20;;;;;;6211091;23;20393;-85
2021/08/27 19:07:12;;;;;;;6.93;5.23;;;25.00;56.20;;;;;;6258085;23;20402;-85
2021/08/27 19:12:42;;;;;;;7.27;5.23;;;25.00;56.20;;;;;;6233812;23;20392;-88
2021/08/27 19:15:18;;;;;;;5.80;4.90;;;25.00;56.30;;;;;;6233918;23;20378;-85
2021/08/27 19:17:51;;;;;;;7.83;5.90;;;25.00;56.20;;;;;;6210694;23;20440;-86